Time;durP1;ratioP1;P1;durP2;ratioP2;P2;SDS_P1;SDS_P2;PMS_P1;PMS_P2;Temp;Humidity;BMP_temperature;BMP_pressure;BME280_temperature;BME280_humidity;BME280_pressure;Samples;Min_cycle;Max_cycle;Signal;HPM_P1;HPM_P2
2021/12/07 00:00:54;;;;;;;43.20;5.45;;;;;;;;;;4994731;28;20057;-27
2021/12/07 00:03:21;;;;;;;48.88;6.78;;;;;;;;;;4994480;28;20054;-27
2021/12/07 00:05:47;;;;;;;37.95;5.70;;;;;;;;;;4994720;28;20037;-27
2021/12/07 00:08:14;;;;;;;41.47;6.85;;;;;;;;;;4994625;28;20458;-28
2021/12/07 00:10:41;;;;;;;38.42;6.93;;;;;;;;;;4994857;28;20096;-27
2021/12/07 00:13:09;;;;;;;45.22;6.75;;;;;;;;;;4996343;28;20034;-27
2021/12/07 00:15:36;;;;;;;38.00;5.18;;;;;;;;;;4998549;28;20092;-27
2021/12/07 00:18:04;;;;;;;38.63;6.03;;;;;;;;;;4981347;28;20022;-27
2021/12/07 00:20:30;;;;;;;26.20;6.57;;;;;;;;;;4998204;28;20027;-27
2021/12/07 00:22:58;;;;;;;37.80;5.38;;;;;;;;;;4998094;28;20029;-27
2021/12/07 00:25:25;;;;;;;32.22;5.53;;;;;;;;;;4998149;28;20038;-27
2021/12/07 00:27:52;;;;;;;36.35;6.97;;;;;;;;;;4998327;28;20046;-27
2021/12/07 00:30:18;;;;;;;33.28;4.90;;;;;;;;;;4998014;28;20030;-27
2021/12/07 00:32:56;;;;;;;34.85;6.50;;;;;;;;;;4997853;28;20026;-27
2021/12/07 00:35:35;;;;;;;39.10;5.60;;;;;;;;;;4997935;28;20488;-27
2021/12/07 00:38:03;;;;;;;32.08;6.10;;;;;;;;;;4998202;28;20026;-28
2021/12/07 00:40:29;;;;;;;28.92;6.25;;;;;;;;;;4998643;28;20344;-27
2021/12/07 00:42:56;;;;;;;42.28;5.75;;;;;;;;;;4997758;28;20424;-27
2021/12/07 00:45:24;;;;;;;24.85;5.38;;;;;;;;;;4998055;28;20118;-27
2021/12/07 00:47:50;;;;;;;45.15;5.30;;;;;;;;;;4997761;28;20125;-28
2021/12/07 00:50:18;;;;;;;31.48;5.00;;;;;;;;;;4997942;28;20026;-28
2021/12/07 00:52:44;;;;;;;33.42;6.43;;;;;;;;;;4997660;28;20030;-27
2021/12/07 00:55:12;;;;;;;39.58;6.70;;;;;;;;;;4997568;28;20026;-27
2021/12/07 00:57:39;;;;;;;57.92;5.78;;;;;;;;;;4980544;28;20038;-27
2021/12/07 01:00:06;;;;;;;42.17;6.00;;;;;;;;;;4997510;28;20093;-27
2021/12/07 01:02:32;;;;;;;30.42;5.82;;;;;;;;;;4997188;28;20085;-28
2021/12/07 01:05:08;;;;;;;34.63;4.65;;;;;;;;;;4997775;28;20362;-27
2021/12/07 01:26:33;;;;;;;34.58;5.65;;;;;;;;;;4997407;28;20041;-27
2021/12/07 01:28:59;;;;;;;39.92;6.15;;;;;;;;;;4997292;28;20036;-28
2021/12/07 01:31:37;;;;;;;37.67;7.25;;;;;;;;;;4997238;28;20052;-28
2021/12/07 01:34:27;;;;;;;26.13;3.85;;;;;;;;;;4997086;28;20026;-28
2021/12/07 01:37:27;;;;;;;31.33;5.25;;;;;;;;;;4997144;28;20026;-28
2021/12/07 01:49:33;;;;;;;31.98;6.28;;;;;;;;;;4997271;28;20042;-27
2021/12/07 02:01:45;;;;;;;28.77;4.47;;;;;;;;;;4996592;28;20080;-28
2021/12/07 02:04:12;;;;;;;24.27;4.13;;;;;;;;;;4996207;28;20121;-28
2021/12/07 02:06:38;;;;;;;30.48;4.68;;;;;;;;;;4996605;28;20023;-28
2021/12/07 02:09:06;;;;;;;23.63;3.72;;;;;;;;;;4996534;28;20026;-28
2021/12/07 02:11:33;;;;;;;28.17;4.30;;;;;;;;;;4996112;28;20032;-27
2021/12/07 02:16:29;;;;;;;17.45;3.83;;;;;;;;;;4996117;28;20030;-28
2021/12/07 02:18:55;;;;;;;26.15;4.40;;;;;;;;;;4979034;28;20039;-28
2021/12/07 02:21:23;;;;;;;31.17;4.10;;;;;;;;;;4996148;28;20081;-28
2021/12/07 02:23:50;;;;;;;24.40;3.85;;;;;;;;;;4995657;28;20053;-28
2021/12/07 02:26:17;;;;;;;29.50;5.40;;;;;;;;;;4996054;28;20031;-27
2021/12/07 02:28:44;;;;;;;28.95;4.38;;;;;;;;;;4996030;28;20117;-28
2021/12/07 02:31:10;;;;;;;29.60;3.97;;;;;;;;;;4995694;28;20366;-27
2021/12/07 02:33:37;;;;;;;15.95;4.72;;;;;;;;;;4995537;28;20034;-28
2021/12/07 02:36:04;;;;;;;20.48;3.45;;;;;;;;;;4995376;28;20353;-28
2021/12/07 02:38:30;;;;;;;22.00;3.72;;;;;;;;;;4995611;28;20018;-28
2021/12/07 02:40:56;;;;;;;21.92;3.78;;;;;;;;;;4995552;28;20105;-28
2021/12/07 02:43:22;;;;;;;24.60;4.80;;;;;;;;;;4995514;28;20358;-28
2021/12/07 02:45:49;;;;;;;26.88;4.82;;;;;;;;;;4995571;28;20088;-28
2021/12/07 02:48:15;;;;;;;28.65;3.83;;;;;;;;;;4995770;28;20034;-28
2021/12/07 02:50:41;;;;;;;15.90;3.65;;;;;;;;;;4995730;28;20108;-28
2021/12/07 02:53:08;;;;;;;17.98;3.88;;;;;;;;;;4995329;28;20061;-27
2021/12/07 02:55:34;;;;;;;22.25;3.70;;;;;;;;;;4995441;28;20049;-28
2021/12/07 02:58:01;;;;;;;23.30;4.32;;;;;;;;;;4995409;28;20030;-28
2021/12/07 03:00:35;;;;;;;23.67;4.07;;;;;;;;;;4995682;28;20022;-28
2021/12/07 03:03:07;;;;;;;24.60;3.72;;;;;;;;;;4995125;28;20054;-28
2021/12/07 03:05:48;;;;;;;27.15;3.70;;;;;;;;;;4995616;28;20369;-28
2021/12/07 03:08:59;;;;;;;24.25;3.85;;;;;;;;;;4995281;28;20036;-27
2021/12/07 03:27:57;;;;;;;21.17;4.32;;;;;;;;;;4995406;28;20048;-28
2021/12/07 03:30:24;;;;;;;19.58;3.22;;;;;;;;;;4995079;28;20046;-28
2021/12/07 03:32:50;;;;;;;20.52;4.07;;;;;;;;;;4995155;28;20038;-27
2021/12/07 03:35:17;;;;;;;19.75;3.80;;;;;;;;;;4995032;28;20026;-28
2021/12/07 03:37:44;;;;;;;25.30;4.28;;;;;;;;;;4995280;28;20327;-28
2021/12/07 03:40:11;;;;;;;12.75;3.72;;;;;;;;;;4994984;28;20026;-27
2021/12/07 03:42:37;;;;;;;18.48;4.05;;;;;;;;;;4995106;28;20366;-28
2021/12/07 03:45:05;;;;;;;24.75;3.63;;;;;;;;;;4994943;28;20018;-28
2021/12/07 03:47:31;;;;;;;19.52;4.13;;;;;;;;;;4995983;28;20090;-28
2021/12/07 03:49:57;;;;;;;16.27;4.75;;;;;;;;;;4999133;28;20033;-28
2021/12/07 03:52:23;;;;;;;26.10;3.85;;;;;;;;;;4981534;28;20105;-28
2021/12/07 03:54:50;;;;;;;20.67;5.32;;;;;;;;;;4998712;28;20030;-28
2021/12/07 03:57:16;;;;;;;26.13;4.13;;;;;;;;;;4998941;28;20030;-28
2021/12/07 03:59:42;;;;;;;18.10;3.38;;;;;;;;;;4998653;28;20046;-28
2021/12/07 04:02:08;;;;;;;14.45;3.90;;;;;;;;;;4998582;28;20358;-28
2021/12/07 04:04:35;;;;;;;18.70;3.67;;;;;;;;;;4998915;28;20031;-28
2021/12/07 04:07:03;;;;;;;16.83;4.50;;;;;;;;;;4998591;28;20441;-28
2021/12/07 04:09:30;;;;;;;23.70;3.92;;;;;;;;;;4998559;28;20030;-28
2021/12/07 04:11:57;;;;;;;29.08;5.25;;;;;;;;;;4998166;28;20034;-27
2021/12/07 04:14:23;;;;;;;20.85;4.25;;;;;;;;;;4998391;28;20022;-28
2021/12/07 04:16:50;;;;;;;15.10;4.43;;;;;;;;;;4998149;28;20450;-28
2021/12/07 04:19:16;;;;;;;23.67;3.88;;;;;;;;;;4981005;28;20056;-27
2021/12/07 04:21:42;;;;;;;16.92;3.30;;;;;;;;;;4998035;28;20121;-28
2021/12/07 04:24:09;;;;;;;13.35;3.35;;;;;;;;;;4998036;28;20030;-28
2021/12/07 04:26:36;;;;;;;20.45;3.70;;;;;;;;;;4998042;28;20061;-28
2021/12/07 04:29:03;;;;;;;15.43;4.88;;;;;;;;;;4998284;28;20096;-28
2021/12/07 04:31:29;;;;;;;13.93;3.67;;;;;;;;;;4997973;28;20113;-28
2021/12/07 04:33:55;;;;;;;21.85;4.60;;;;;;;;;;4997708;28;20057;-28
2021/12/07 04:36:21;;;;;;;13.60;3.03;;;;;;;;;;4997802;28;20027;-28
2021/12/07 04:38:48;;;;;;;22.58;4.05;;;;;;;;;;4997829;28;20128;-28
2021/12/07 04:41:14;;;;;;;21.30;4.38;;;;;;;;;;4997744;28;20038;-28
2021/12/07 04:43:41;;;;;;;21.85;3.38;;;;;;;;;;4997603;28;20105;-28
2021/12/07 04:46:22;;;;;;;22.63;4.45;;;;;;;;;;4997569;28;20033;-28
2021/12/07 04:59:32;;;;;;;21.17;3.33;;;;;;;;;;4997115;28;20377;-27
2021/12/07 05:01:58;;;;;;;18.40;2.95;;;;;;;;;;4997290;28;20025;-28
2021/12/07 05:04:28;;;;;;;13.90;4.25;;;;;;;;;;4997068;28;20047;-28
2021/12/07 05:07:03;;;;;;;19.57;3.60;;;;;;;;;;4997519;28;20089;-28
2021/12/07 05:10:20;;;;;;;18.58;3.33;;;;;;;;;;4996936;28;20068;-28
2021/12/07 05:12:27;;;;;;;14.43;3.45;;;;;;;;;;4988887;28;20137;-28
2021/12/07 05:15:01;;;;;;;17.70;3.17;;;;;;;;;;4997009;28;20038;-28
2021/12/07 05:17:56;;;;;;;25.50;4.13;;;;;;;;;;4997114;28;20049;-28
2021/12/07 05:39:28;;;;;;;29.23;5.07;;;;;;;;;;4997252;28;20118;-29
2021/12/07 05:41:54;;;;;;;20.42;4.10;;;;;;;;;;4996542;28;20466;-29
2021/12/07 05:44:21;;;;;;;20.58;3.80;;;;;;;;;;4996586;28;20034;-29
2021/12/07 05:46:47;;;;;;;16.40;4.10;;;;;;;;;;4996732;28;20441;-29
2021/12/07 05:49:13;;;;;;;13.60;3.58;;;;;;;;;;4996724;28;20030;-29
2021/12/07 05:51:39;;;;;;;40.83;3.90;;;;;;;;;;4996438;28;20461;-29
2021/12/07 05:54:06;;;;;;;28.33;4.75;;;;;;;;;;4996346;28;20042;-29
2021/12/07 05:56:33;;;;;;;18.17;4.07;;;;;;;;;;4996326;28;20030;-29
2021/12/07 05:58:59;;;;;;;28.00;3.08;;;;;;;;;;4996308;28;20036;-29
2021/12/07 06:01:25;;;;;;;31.38;4.38;;;;;;;;;;4996521;28;20018;-29
2021/12/07 06:03:52;;;;;;;26.52;4.32;;;;;;;;;;4996066;28;20458;-29
2021/12/07 06:06:18;;;;;;;20.70;4.95;;;;;;;;;;4996227;28;20022;-29
2021/12/07 06:08:44;;;;;;;30.27;4.63;;;;;;;;;;4996184;28;20054;-29
2021/12/07 06:11:10;;;;;;;33.63;4.90;;;;;;;;;;4995259;28;20034;-29
2021/12/07 06:13:37;;;;;;;28.17;4.43;;;;;;;;;;4996625;28;20058;-28
2021/12/07 06:16:07;;;;;;;29.60;6.57;;;;;;;;;;4996044;28;20023;-29
2021/12/07 06:18:34;;;;;;;31.20;4.85;;;;;;;;;;4996086;28;20361;-29
2021/12/07 06:21:00;;;;;;;26.08;4.55;;;;;;;;;;4996276;28;20037;-29
2021/12/07 06:23:26;;;;;;;34.72;5.25;;;;;;;;;;4996106;28;20023;-28
2021/12/07 06:25:54;;;;;;;37.70;5.47;;;;;;;;;;4978764;28;20415;-29
2021/12/07 06:28:21;;;;;;;24.27;6.38;;;;;;;;;;4995769;28;20045;-29
2021/12/07 06:30:48;;;;;;;34.28;4.57;;;;;;;;;;4995685;28;20026;-29
2021/12/07 06:33:14;;;;;;;35.35;4.70;;;;;;;;;;4995591;28;20365;-29
2021/12/07 06:35:41;;;;;;;33.67;5.78;;;;;;;;;;4995729;28;20034;-29
2021/12/07 06:38:08;;;;;;;30.52;5.22;;;;;;;;;;4995571;28;20102;-28
2021/12/07 06:40:34;;;;;;;36.25;4.72;;;;;;;;;;4995698;28;20027;-29
2021/12/07 06:43:01;;;;;;;32.35;5.40;;;;;;;;;;4995571;28;20048;-29
2021/12/07 06:45:31;;;;;;;26.73;4.53;;;;;;;;;;4995612;28;20105;-28
2021/12/07 06:47:58;;;;;;;22.00;4.85;;;;;;;;;;4995817;28;20111;-28
2021/12/07 06:50:25;;;;;;;41.45;4.40;;;;;;;;;;4995801;28;20045;-29
2021/12/07 06:52:52;;;;;;;36.15;4.32;;;;;;;;;;4995308;28;20109;-29
2021/12/07 06:55:18;;;;;;;28.33;6.13;;;;;;;;;;4995495;28;20069;-29
2021/12/07 06:57:44;;;;;;;36.10;4.45;;;;;;;;;;4995346;28;20110;-28
2021/12/07 07:00:12;;;;;;;52.47;6.47;;;;;;;;;;4995276;28;20026;-29
2021/12/07 07:02:38;;;;;;;53.25;6.85;;;;;;;;;;4979888;28;20051;-29
2021/12/07 07:05:05;;;;;;;34.97;6.05;;;;;;;;;;4995407;28;20077;-29
2021/12/07 07:07:33;;;;;;;36.75;5.60;;;;;;;;;;4995476;28;20036;-29
2021/12/07 07:09:59;;;;;;;35.45;5.53;;;;;;;;;;4995241;28;20476;-29
2021/12/07 07:12:25;;;;;;;47.97;4.88;;;;;;;;;;4995158;28;20038;-28
2021/12/07 07:14:52;;;;;;;47.85;7.68;;;;;;;;;;4995241;28;20034;-29
2021/12/07 07:17:18;;;;;;;49.50;6.68;;;;;;;;;;4995377;28;20133;-29
2021/12/07 07:19:45;;;;;;;30.45;4.72;;;;;;;;;;4995048;28;20018;-29
2021/12/07 07:22:11;;;;;;;30.35;4.28;;;;;;;;;;4994756;28;20108;-27
2021/12/07 07:24:38;;;;;;;43.15;4.93;;;;;;;;;;4995212;28;20085;-29
2021/12/07 07:27:04;;;;;;;50.17;6.82;;;;;;;;;;4995202;28;20026;-29
2021/12/07 07:29:30;;;;;;;34.67;5.65;;;;;;;;;;4995704;28;20042;-29
2021/12/07 07:31:57;;;;;;;31.60;4.60;;;;;;;;;;4994848;28;20037;-27
2021/12/07 07:34:23;;;;;;;32.55;6.18;;;;;;;;;;4995054;28;20031;-27
2021/12/07 07:36:50;;;;;;;44.13;6.13;;;;;;;;;;4994981;28;20026;-27
2021/12/07 07:39:16;;;;;;;32.28;4.15;;;;;;;;;;4994670;28;20358;-27
2021/12/07 07:41:42;;;;;;;37.63;5.00;;;;;;;;;;4994854;28;20020;-26
2021/12/07 07:44:08;;;;;;;34.85;4.97;;;;;;;;;;4994791;28;20023;-27
2021/12/07 07:46:35;;;;;;;38.13;5.20;;;;;;;;;;4994991;28;20026;-26
2021/12/07 07:49:02;;;;;;;36.47;5.45;;;;;;;;;;4994988;28;20039;-26
2021/12/07 07:51:29;;;;;;;17.52;3.78;;;;;;;;;;4994911;28;20026;-27
2021/12/07 07:53:56;;;;;;;32.60;6.13;;;;;;;;;;4994497;28;20030;-29
2021/12/07 07:56:23;;;;;;;26.02;6.30;;;;;;;;;;4994804;28;20026;-29
2021/12/07 07:58:49;;;;;;;34.13;5.25;;;;;;;;;;4994868;28;20061;-29
2021/12/07 08:01:15;;;;;;;40.67;7.78;;;;;;;;;;4994733;28;20026;-27
2021/12/07 08:03:41;;;;;;;26.45;4.90;;;;;;;;;;4994309;28;20062;-29
2021/12/07 08:06:07;;;;;;;33.50;5.35;;;;;;;;;;4994473;28;20026;-27
2021/12/07 08:08:34;;;;;;;30.35;4.35;;;;;;;;;;4994370;28;20030;-27
2021/12/07 08:11:01;;;;;;;31.98;6.10;;;;;;;;;;4994333;28;20031;-27
2021/12/07 08:13:30;;;;;;;47.55;6.40;;;;;;;;;;4994414;28;20046;-26
2021/12/07 08:15:57;;;;;;;32.08;5.85;;;;;;;;;;4994418;28;20057;-29
2021/12/07 08:18:23;;;;;;;47.65;5.93;;;;;;;;;;4994441;28;20026;-27
2021/12/07 08:20:49;;;;;;;67.93;6.63;;;;;;;;;;4977211;28;20026;-29
2021/12/07 08:23:15;;;;;;;55.65;7.55;;;;;;;;;;4994416;28;20026;-29
2021/12/07 08:25:43;;;;;;;46.22;6.03;;;;;;;;;;4994427;28;20334;-29
2021/12/07 08:28:14;;;;;;;38.03;6.05;;;;;;;;;;4994374;28;20034;-27
2021/12/07 08:30:41;;;;;;;42.05;4.80;;;;;;;;;;4994724;28;20052;-27
2021/12/07 08:33:08;;;;;;;30.25;4.80;;;;;;;;;;4995214;28;20034;-27
2021/12/07 08:35:35;;;;;;;58.30;5.32;;;;;;;;;;4980608;28;20120;-27
2021/12/07 08:38:01;;;;;;;54.65;7.32;;;;;;;;;;4980484;28;20561;-27
2021/12/07 08:40:30;;;;;;;39.97;6.50;;;;;;;;;;4997961;28;20061;-27
2021/12/07 08:42:57;;;;;;;43.28;6.18;;;;;;;;;;4997854;28;20108;-27
2021/12/07 08:45:23;;;;;;;44.85;5.47;;;;;;;;;;4997653;28;20033;-27
2021/12/07 08:47:50;;;;;;;62.17;5.55;;;;;;;;;;4997619;28;20049;-27
2021/12/07 08:50:18;;;;;;;41.03;6.20;;;;;;;;;;4997539;28;20038;-27
2021/12/07 08:52:45;;;;;;;52.70;6.45;;;;;;;;;;4997483;28;20361;-29
2021/12/07 09:00:25;;;;;;;41.85;6.45;;;;;;;;;;4997819;28;20041;-28
2021/12/07 09:02:51;;;;;;;41.38;7.57;;;;;;;;;;4997255;28;20481;-28
2021/12/07 09:05:17;;;;;;;29.48;5.40;;;;;;;;;;4997405;28;20101;-28
2021/12/07 09:07:44;;;;;;;31.52;5.68;;;;;;;;;;4997295;28;20088;-28
2021/12/07 09:10:10;;;;;;;39.30;6.18;;;;;;;;;;4997177;28;20069;-28
2021/12/07 09:12:37;;;;;;;39.65;5.10;;;;;;;;;;4997403;28;20030;-28
2021/12/07 09:15:04;;;;;;;40.15;5.47;;;;;;;;;;4996986;28;20113;-28
2021/12/07 09:17:30;;;;;;;36.40;4.78;;;;;;;;;;4997064;28;20537;-28
2021/12/07 09:19:56;;;;;;;41.03;5.35;;;;;;;;;;4997079;28;20450;-28
2021/12/07 09:22:23;;;;;;;39.40;5.63;;;;;;;;;;4997293;28;20026;-28
2021/12/07 09:24:50;;;;;;;33.38;6.15;;;;;;;;;;4997065;28;20089;-28
2021/12/07 09:27:17;;;;;;;31.15;5.07;;;;;;;;;;4997248;28;20041;-28
2021/12/07 09:29:43;;;;;;;46.45;6.18;;;;;;;;;;4997161;28;20157;-28
2021/12/07 09:32:09;;;;;;;48.97;5.22;;;;;;;;;;4996801;28;20031;-28
2021/12/07 09:34:36;;;;;;;42.60;5.68;;;;;;;;;;4996714;28;20030;-28
2021/12/07 09:37:02;;;;;;;42.22;6.78;;;;;;;;;;4996942;28;20334;-28
2021/12/07 09:46:12;;;;;;;22.95;4.65;;;;;;;;;;4996946;28;20040;-28
2021/12/07 09:48:39;;;;;;;43.90;5.72;;;;;;;;;;4996786;28;20141;-28
2021/12/07 09:51:07;;;;;;;39.53;5.28;;;;;;;;;;4996537;28;20081;-28
2021/12/07 09:53:34;;;;;;;28.77;4.80;;;;;;;;;;4996170;28;20041;-28
2021/12/07 09:56:02;;;;;;;33.97;6.15;;;;;;;;;;4979205;28;20100;-28
2021/12/07 09:58:29;;;;;;;39.50;6.32;;;;;;;;;;4979391;28;20031;-28
2021/12/07 10:00:56;;;;;;;30.13;5.10;;;;;;;;;;4996337;28;20022;-28
2021/12/07 10:19:28;;;;;;;30.63;4.45;;;;;;;;;;4996536;28;20049;-28
2021/12/07 10:22:07;;;;;;;29.00;3.97;;;;;;;;;;4995753;28;20116;-28
2021/12/07 10:24:46;;;;;;;37.25;4.80;;;;;;;;;;4995779;28;20127;-28
2021/12/07 10:27:13;;;;;;;32.10;5.47;;;;;;;;;;4995723;28;20165;-28
2021/12/07 10:29:40;;;;;;;27.13;7.07;;;;;;;;;;4995937;28;20080;-28
2021/12/07 10:32:07;;;;;;;29.75;5.95;;;;;;;;;;4995757;28;20124;-28
2021/12/07 10:34:36;;;;;;;32.47;4.50;;;;;;;;;;4995774;28;20457;-27
2021/12/07 10:37:10;;;;;;;54.90;6.70;;;;;;;;;;4995404;28;20027;-28
2021/12/07 10:39:43;;;;;;;33.78;5.20;;;;;;;;;;4978398;28;20038;-28
2021/12/07 10:42:30;;;;;;;31.77;5.20;;;;;;;;;;4995302;28;20022;-28
2021/12/07 10:44:59;;;;;;;38.13;6.25;;;;;;;;;;4995134;28;20044;-28
2021/12/07 10:47:27;;;;;;;50.88;6.93;;;;;;;;;;4995424;28;20050;-28
2021/12/07 10:49:55;;;;;;;39.22;7.50;;;;;;;;;;4995097;28;20044;-28
2021/12/07 10:52:40;;;;;;;38.28;6.50;;;;;;;;;;4995298;28;20034;-28
2021/12/07 10:55:12;;;;;;;46.65;8.02;;;;;;;;;;4994988;28;20030;-28
2021/12/07 10:57:46;;;;;;;37.13;7.43;;;;;;;;;;4995307;28;20101;-28
2021/12/07 11:00:13;;;;;;;39.05;5.85;;;;;;;;;;4995022;28;20045;-28
2021/12/07 11:02:41;;;;;;;40.22;4.95;;;;;;;;;;4994773;28;20046;-28
2021/12/07 11:05:12;;;;;;;42.92;5.28;;;;;;;;;;4995276;28;20033;-28
2021/12/07 11:07:38;;;;;;;;;;;;;;;;;;4995630;28;20186;-28
2021/12/07 11:10:18;;;;;;;34.45;5.35;;;;;;;;;;4995034;28;20009;-28
2021/12/07 11:12:49;;;;;;;70.18;6.85;;;;;;;;;;4977755;28;20110;-28
2021/12/07 11:15:21;;;;;;;36.38;7.32;;;;;;;;;;4994839;28;20445;-28
2021/12/07 11:17:47;;;;;;;38.95;7.25;;;;;;;;;;4995014;28;20027;-28
2021/12/07 11:20:14;;;;;;;40.50;7.68;;;;;;;;;;4995186;28;20129;-28
2021/12/07 11:22:43;;;;;;;52.60;7.88;;;;;;;;;;4994805;28;20474;-28
2021/12/07 11:25:10;;;;;;;36.67;7.13;;;;;;;;;;4977722;28;20117;-28
2021/12/07 11:30:22;;;;;;;40.90;7.20;;;;;;;;;;4994841;28;20049;-28
2021/12/07 11:32:55;;;;;;;35.03;6.57;;;;;;;;;;4994781;28;20081;-28
2021/12/07 11:35:27;;;;;;;41.95;5.65;;;;;;;;;;4978378;28;20046;-28
2021/12/07 11:37:55;;;;;;;42.40;5.25;;;;;;;;;;4994823;28;20026;-28
2021/12/07 11:40:28;;;;;;;32.35;6.03;;;;;;;;;;4994842;28;20382;-28
2021/12/07 11:42:55;;;;;;;39.30;5.05;;;;;;;;;;4994902;28;20109;-28
2021/12/07 11:45:26;;;;;;;46.22;5.68;;;;;;;;;;4994963;28;20027;-28
2021/12/07 11:47:55;;;;;;;45.92;5.40;;;;;;;;;;4994759;28;20458;-28
2021/12/07 11:50:27;;;;;;;44.63;6.45;;;;;;;;;;4994682;28;20018;-28
2021/12/07 11:53:02;;;;;;;45.65;6.90;;;;;;;;;;4994700;28;20365;-28
2021/12/07 11:55:28;;;;;;;54.85;8.80;;;;;;;;;;4995065;28;20420;-28
2021/12/07 11:57:55;;;;;;;40.85;5.28;;;;;;;;;;4994599;28;20031;-28
2021/12/07 12:00:24;;;;;;;45.22;7.32;;;;;;;;;;4994895;28;20030;-28
2021/12/07 12:02:52;;;;;;;57.28;8.15;;;;;;;;;;4981492;28;20443;-28
2021/12/07 12:05:18;;;;;;;53.13;6.63;;;;;;;;;;4994561;28;20117;-28
2021/12/07 12:07:46;;;;;;;57.65;6.55;;;;;;;;;;4994418;28;20026;-28
2021/12/07 12:10:13;;;;;;;51.72;6.97;;;;;;;;;;4998355;28;20022;-28
2021/12/07 12:12:49;;;;;;;57.30;7.35;;;;;;;;;;4998240;28;20442;-28
2021/12/07 12:15:39;;;;;;;67.15;12.43;;;;;;;;;;4998228;28;20104;-28
2021/12/07 12:18:14;;;;;;;50.63;6.30;;;;;;;;;;4998513;28;20391;-28
2021/12/07 12:20:42;;;;;;;47.22;8.30;;;;;;;;;;4998395;28;20018;-28
2021/12/07 12:23:14;;;;;;;58.13;9.50;;;;;;;;;;4998006;28;20026;-28
2021/12/07 12:25:40;;;;;;;37.88;5.85;;;;;;;;;;4997995;28;20085;-28
2021/12/07 12:28:07;;;;;;;51.78;7.97;;;;;;;;;;4998173;28;20081;-28
2021/12/07 12:30:36;;;;;;;49.92;6.97;;;;;;;;;;4997920;28;20449;-28
2021/12/07 12:33:04;;;;;;;48.42;6.32;;;;;;;;;;4997726;28;20373;-28
2021/12/07 12:35:42;;;;;;;38.38;6.30;;;;;;;;;;4997839;28;20026;-28
2021/12/07 12:38:22;;;;;;;52.30;6.97;;;;;;;;;;4997735;28;20504;-28
2021/12/07 12:41:02;;;;;;;47.60;6.20;;;;;;;;;;4998090;28;20063;-28
2021/12/07 12:43:35;;;;;;;39.58;6.05;;;;;;;;;;4997714;28;20030;-28
2021/12/07 12:46:02;;;;;;;43.08;6.75;;;;;;;;;;4997858;28;20307;-28
2021/12/07 12:48:28;;;;;;;45.03;6.82;;;;;;;;;;4997647;28;20026;-28
2021/12/07 12:50:56;;;;;;;40.08;7.47;;;;;;;;;;4997535;28;20040;-28
2021/12/07 12:53:31;;;;;;;53.15;7.80;;;;;;;;;;4997232;28;20089;-28
2021/12/07 12:56:08;;;;;;;36.85;6.22;;;;;;;;;;4997684;28;20357;-28
2021/12/07 12:58:36;;;;;;;41.70;5.90;;;;;;;;;;4997419;28;20100;-28
2021/12/07 13:01:08;;;;;;;35.63;5.90;;;;;;;;;;4997398;28;20030;-28
2021/12/07 13:03:44;;;;;;;47.60;7.20;;;;;;;;;;4997170;28;20429;-28
2021/12/07 13:06:15;;;;;;;50.15;6.80;;;;;;;;;;4997445;28;20113;-28
2021/12/07 13:08:55;;;;;;;47.40;5.80;;;;;;;;;;4997473;28;20038;-28
2021/12/07 13:11:49;;;;;;;64.40;6.22;;;;;;;;;;4997370;28;20034;-28
2021/12/07 13:14:22;;;;;;;32.22;5.57;;;;;;;;;;4996865;28;20050;-28
2021/12/07 13:17:01;;;;;;;28.25;5.28;;;;;;;;;;4996990;28;20501;-28
2021/12/07 13:19:28;;;;;;;55.20;7.22;;;;;;;;;;4996921;28;20026;-28
2021/12/07 13:21:56;;;;;;;56.67;6.63;;;;;;;;;;4997112;28;20022;-28
2021/12/07 13:24:36;;;;;;;50.78;8.02;;;;;;;;;;4996898;28;20031;-28
2021/12/07 13:27:11;;;;;;;45.28;6.00;;;;;;;;;;4997552;28;20308;-28
2021/12/07 13:29:38;;;;;;;61.25;8.15;;;;;;;;;;4997056;28;20065;-28
2021/12/07 13:32:06;;;;;;;60.95;6.85;;;;;;;;;;4979403;28;20038;-28
2021/12/07 13:34:33;;;;;;;92.20;10.63;;;;;;;;;;4996570;28;20118;-28
2021/12/07 13:37:03;;;;;;;43.38;6.97;;;;;;;;;;4996587;28;20030;-28
2021/12/07 13:39:35;;;;;;;47.75;7.45;;;;;;;;;;4996844;28;20093;-28
2021/12/07 13:42:06;;;;;;;44.33;6.03;;;;;;;;;;4996474;28;20363;-28
2021/12/07 13:44:34;;;;;;;41.30;7.13;;;;;;;;;;4997268;28;20035;-29
2021/12/07 13:47:04;;;;;;;52.67;6.85;;;;;;;;;;4996434;28;20097;-29
2021/12/07 13:49:31;;;;;;;41.63;5.13;;;;;;;;;;4996435;28;20117;-29
2021/12/07 13:51:58;;;;;;;47.00;7.25;;;;;;;;;;4996095;28;20042;-29
2021/12/07 13:54:24;;;;;;;76.05;10.98;;;;;;;;;;4996075;28;20057;-29
2021/12/07 13:56:51;;;;;;;50.83;8.25;;;;;;;;;;4996322;28;20165;-29
2021/12/07 13:59:21;;;;;;;47.80;7.40;;;;;;;;;;4996151;28;20366;-29
2021/12/07 14:01:51;;;;;;;65.40;6.65;;;;;;;;;;4995828;28;20038;-29
2021/12/07 14:04:18;;;;;;;41.28;6.93;;;;;;;;;;4995904;28;20108;-29
2021/12/07 14:06:49;;;;;;;53.42;6.65;;;;;;;;;;4995984;28;20473;-29
2021/12/07 14:09:17;;;;;;;49.90;7.25;;;;;;;;;;4996230;28;20466;-28
2021/12/07 14:11:43;;;;;;;70.55;8.75;;;;;;;;;;4995823;28;20472;-29
2021/12/07 14:14:17;;;;;;;52.33;7.13;;;;;;;;;;4995922;28;20508;-29
2021/12/07 14:16:44;;;;;;;55.35;7.50;;;;;;;;;;4996356;28;20022;-28
2021/12/07 14:19:10;;;;;;;66.88;7.85;;;;;;;;;;4995932;28;20018;-29
2021/12/07 14:21:36;;;;;;;82.90;9.73;;;;;;;;;;4995839;28;20038;-29
2021/12/07 14:24:06;;;;;;;51.25;7.88;;;;;;;;;;4995759;28;20105;-28
2021/12/07 14:26:37;;;;;;;59.20;7.55;;;;;;;;;;4996180;28;20026;-29
2021/12/07 14:29:05;;;;;;;67.88;8.52;;;;;;;;;;4996069;28;20109;-29
2021/12/07 14:31:39;;;;;;;61.15;7.75;;;;;;;;;;4995057;28;20034;-29
2021/12/07 14:34:07;;;;;;;66.40;8.70;;;;;;;;;;4995428;28;20117;-29
2021/12/07 14:36:38;;;;;;;66.50;8.30;;;;;;;;;;4995600;28;20461;-28
2021/12/07 14:39:04;;;;;;;;;;;;;;;;;;4996057;28;20033;-28
2021/12/07 14:41:30;;;;;;;64.53;9.57;;;;;;;;;;4978503;28;19909;-28
2021/12/07 14:43:57;;;;;;;74.97;10.18;;;;;;;;;;4995754;28;20112;-28
2021/12/07 14:46:26;;;;;;;60.25;9.82;;;;;;;;;;4995450;28;20026;-28
2021/12/07 14:48:53;;;;;;;46.22;6.72;;;;;;;;;;4995255;28;20366;-29
2021/12/07 14:51:24;;;;;;;54.17;8.70;;;;;;;;;;4995296;28;20120;-28
2021/12/07 14:53:50;;;;;;;;;;;;;;;;;;4995436;28;20082;-29
2021/12/07 14:56:18;;;;;;;55.97;7.45;;;;;;;;;;4995142;28;19916;-28
2021/12/07 14:58:45;;;;;;;54.05;7.22;;;;;;;;;;4995236;28;20026;-28
2021/12/07 15:01:13;;;;;;;75.05;7.30;;;;;;;;;;4995165;28;20482;-28
2021/12/07 15:03:41;;;;;;;64.35;8.23;;;;;;;;;;4994884;28;20046;-29
2021/12/07 15:06:08;;;;;;;76.10;10.07;;;;;;;;;;4995292;28;20030;-29
2021/12/07 15:08:35;;;;;;;54.72;7.03;;;;;;;;;;4995232;28;20092;-27
2021/12/07 15:11:01;;;;;;;56.65;6.93;;;;;;;;;;4995223;28;20117;-26
2021/12/07 15:13:28;;;;;;;75.88;7.45;;;;;;;;;;4994990;28;20406;-29
2021/12/07 15:15:55;;;;;;;88.90;9.85;;;;;;;;;;4995505;28;20026;-29
2021/12/07 15:18:31;;;;;;;63.22;7.80;;;;;;;;;;4995402;28;20027;-29
2021/12/07 15:20:58;;;;;;;45.40;8.77;;;;;;;;;;4995728;28;20041;-29
2021/12/07 15:23:25;;;;;;;59.47;9.30;;;;;;;;;;4994876;28;20058;-29
2021/12/07 15:25:55;;;;;;;56.15;6.72;;;;;;;;;;4994862;28;20030;-27
2021/12/07 15:28:22;;;;;;;54.90;8.75;;;;;;;;;;4995256;28;20121;-27
2021/12/07 15:30:49;;;;;;;46.28;6.30;;;;;;;;;;4994950;28;20034;-27
2021/12/07 15:33:15;;;;;;;45.53;6.93;;;;;;;;;;4994481;28;20042;-27
2021/12/07 15:35:43;;;;;;;30.40;6.07;;;;;;;;;;4994961;28;20132;-26
2021/12/07 15:38:20;;;;;;;50.28;6.60;;;;;;;;;;4994624;28;20018;-29
2021/12/07 15:40:47;;;;;;;67.95;11.13;;;;;;;;;;4994906;28;20102;-29
2021/12/07 15:43:13;;;;;;;71.43;8.88;;;;;;;;;;4996878;28;20449;-29
2021/12/07 15:45:41;;;;;;;60.22;8.02;;;;;;;;;;4999054;28;20181;-29
2021/12/07 15:48:08;;;;;;;73.00;8.00;;;;;;;;;;4998665;28;20033;-27
2021/12/07 15:50:37;;;;;;;58.17;8.05;;;;;;;;;;4998913;28;20113;-26
2021/12/07 15:53:07;;;;;;;58.97;8.48;;;;;;;;;;4998690;28;20092;-26
2021/12/07 15:55:40;;;;;;;56.83;8.23;;;;;;;;;;4998934;28;20034;-27
2021/12/07 15:58:32;;;;;;;64.75;10.95;;;;;;;;;;4998623;28;20485;-27
2021/12/07 16:01:01;;;;;;;51.88;7.43;;;;;;;;;;4995812;28;20038;-27
2021/12/07 16:03:40;;;;;;;55.03;6.93;;;;;;;;;;4987469;28;20050;-27
2021/12/07 16:06:14;;;;;;;47.22;6.07;;;;;;;;;;4998811;28;20030;-27
2021/12/07 16:08:41;;;;;;;63.25;7.82;;;;;;;;;;4998741;28;20097;-27
2021/12/07 16:11:08;;;;;;;66.25;8.75;;;;;;;;;;4998353;28;20034;-27
2021/12/07 16:13:36;;;;;;;68.00;8.88;;;;;;;;;;4997979;28;20078;-29
2021/12/07 16:16:08;;;;;;;64.00;7.28;;;;;;;;;;4998180;28;20045;-29
2021/12/07 16:18:35;;;;;;;69.65;7.05;;;;;;;;;;4998471;28;20053;-29
2021/12/07 16:21:02;;;;;;;47.67;7.22;;;;;;;;;;4998122;28;20038;-29
2021/12/07 16:23:31;;;;;;;41.95;8.23;;;;;;;;;;4998006;28;20466;-27
2021/12/07 16:25:57;;;;;;;66.30;8.63;;;;;;;;;;4998274;28;20042;-27
2021/12/07 16:28:23;;;;;;;54.92;8.63;;;;;;;;;;4997919;28;20061;-27
2021/12/07 16:30:49;;;;;;;43.03;7.95;;;;;;;;;;4997903;28;20077;-29
2021/12/07 16:33:15;;;;;;;55.05;9.73;;;;;;;;;;4997694;28;20045;-27
2021/12/07 16:35:42;;;;;;;56.30;7.82;;;;;;;;;;4998092;28;20026;-27
2021/12/07 16:38:08;;;;;;;56.28;9.50;;;;;;;;;;4997800;28;20033;-26